sensor_id;sensor_type;location;lat;lon;timestamp;P1;durP1;ratioP1;P2;durP2;ratioP2
75050;SDS011;63628;47.656;11.310;2023-08-06T00:00:26;1.67;;;1.15;;
75050;SDS011;63628;47.656;11.310;2023-08-06T00:02:53;1.20;;;1.10;;
75050;SDS011;63628;47.656;11.310;2023-08-06T00:05:21;1.35;;;1.25;;
75050;SDS011;63628;47.656;11.310;2023-08-06T00:07:48;4.93;;;1.77;;
75050;SDS011;63628;47.656;11.310;2023-08-06T00:10:15;1.45;;;1.30;;
75050;SDS011;63628;47.656;11.310;2023-08-06T00:12:42;1.45;;;1.30;;
75050;SDS011;63628;47.656;11.310;2023-08-06T00:15:09;1.52;;;1.20;;
75050;SDS011;63628;47.656;11.310;2023-08-06T00:17:37;1.40;;;1.30;;
75050;SDS011;63628;47.656;11.310;2023-08-06T00:20:04;1.48;;;1.38;;
75050;SDS011;63628;47.656;11.310;2023-08-06T00:22:33;2.03;;;1.33;;
75050;SDS011;63628;47.656;11.310;2023-08-06T00:25:00;1.20;;;1.10;;
75050;SDS011;63628;47.656;11.310;2023-08-06T00:27:27;2.63;;;1.50;;
75050;SDS011;63628;47.656;11.310;2023-08-06T00:29:53;1.77;;;1.30;;
75050;SDS011;63628;47.656;11.310;2023-08-06T00:32:20;1.45;;;1.35;;
75050;SDS011;63628;47.656;11.310;2023-08-06T00:34:48;1.35;;;1.25;;
75050;SDS011;63628;47.656;11.310;2023-08-06T00:37:18;1.27;;;1.17;;
75050;SDS011;63628;47.656;11.310;2023-08-06T00:39:45;1.48;;;1.38;;
75050;SDS011;63628;47.656;11.310;2023-08-06T00:42:11;1.20;;;1.10;;
75050;SDS011;63628;47.656;11.310;2023-08-06T00:44:38;1.23;;;0.95;;
75050;SDS011;63628;47.656;11.310;2023-08-06T00:47:06;1.50;;;1.35;;
75050;SDS011;63628;47.656;11.310;2023-08-06T00:49:34;1.63;;;1.50;;
75050;SDS011;63628;47.656;11.310;2023-08-06T00:52:04;1.40;;;1.25;;
75050;SDS011;63628;47.656;11.310;2023-08-06T00:56:59;1.55;;;1.40;;
75050;SDS011;63628;47.656;11.310;2023-08-06T00:59:27;1.73;;;1.20;;
75050;SDS011;63628;47.656;11.310;2023-08-06T01:01:54;1.60;;;1.35;;
75050;SDS011;63628;47.656;11.310;2023-08-06T01:04:21;1.45;;;1.10;;
75050;SDS011;63628;47.656;11.310;2023-08-06T01:06:52;1.48;;;1.38;;
75050;SDS011;63628;47.656;11.310;2023-08-06T01:09:30;1.25;;;1.10;;
75050;SDS011;63628;47.656;11.310;2023-08-06T01:12:10;1.33;;;1.23;;
75050;SDS011;63628;47.656;11.310;2023-08-06T01:14:45;1.48;;;1.38;;
75050;SDS011;63628;47.656;11.310;2023-08-06T01:17:17;1.48;;;1.10;;
75050;SDS011;63628;47.656;11.310;2023-08-06T01:19:44;1.20;;;1.10;;
75050;SDS011;63628;47.656;11.310;2023-08-06T01:22:12;1.52;;;1.20;;
75050;SDS011;63628;47.656;11.310;2023-08-06T01:24:39;1.20;;;1.10;;
75050;SDS011;63628;47.656;11.310;2023-08-06T01:27:11;1.17;;;1.08;;
75050;SDS011;63628;47.656;11.310;2023-08-06T01:29:44;1.88;;;0.90;;
75050;SDS011;63628;47.656;11.310;2023-08-06T01:32:15;1.33;;;1.23;;
75050;SDS011;63628;47.656;11.310;2023-08-06T01:34:43;1.10;;;1.00;;
75050;SDS011;63628;47.656;11.310;2023-08-06T01:39:40;1.67;;;1.10;;
75050;SDS011;63628;47.656;11.310;2023-08-06T01:42:09;1.55;;;1.45;;
75050;SDS011;63628;47.656;11.310;2023-08-06T01:44:35;1.30;;;1.20;;
75050;SDS011;63628;47.656;11.310;2023-08-06T01:47:02;1.13;;;0.95;;
75050;SDS011;63628;47.656;11.310;2023-08-06T01:49:29;1.05;;;0.95;;
75050;SDS011;63628;47.656;11.310;2023-08-06T01:51:56;1.67;;;1.27;;
75050;SDS011;63628;47.656;11.310;2023-08-06T01:54:24;0.90;;;0.90;;
75050;SDS011;63628;47.656;11.310;2023-08-06T01:56:51;1.30;;;0.98;;
75050;SDS011;63628;47.656;11.310;2023-08-06T01:59:17;1.10;;;1.00;;
75050;SDS011;63628;47.656;11.310;2023-08-06T02:01:44;1.48;;;0.98;;
75050;SDS011;63628;47.656;11.310;2023-08-06T02:04:11;1.27;;;1.00;;
75050;SDS011;63628;47.656;11.310;2023-08-06T02:06:38;1.23;;;1.10;;
75050;SDS011;63628;47.656;11.310;2023-08-06T02:09:04;1.17;;;1.08;;
75050;SDS011;63628;47.656;11.310;2023-08-06T02:11:32;1.08;;;0.98;;
75050;SDS011;63628;47.656;11.310;2023-08-06T02:13:59;1.67;;;1.15;;
75050;SDS011;63628;47.656;11.310;2023-08-06T02:16:25;1.20;;;1.02;;
75050;SDS011;63628;47.656;11.310;2023-08-06T02:18:52;1.10;;;1.00;;
75050;SDS011;63628;47.656;11.310;2023-08-06T02:21:19;1.55;;;1.30;;
75050;SDS011;63628;47.656;11.310;2023-08-06T02:23:45;1.35;;;1.25;;
75050;SDS011;63628;47.656;11.310;2023-08-06T02:26:12;1.45;;;1.35;;
75050;SDS011;63628;47.656;11.310;2023-08-06T02:28:40;1.10;;;1.00;;
75050;SDS011;63628;47.656;11.310;2023-08-06T02:31:07;2.30;;;1.00;;
75050;SDS011;63628;47.656;11.310;2023-08-06T02:33:33;1.20;;;1.00;;
75050;SDS011;63628;47.656;11.310;2023-08-06T02:36:00;1.38;;;1.02;;
75050;SDS011;63628;47.656;11.310;2023-08-06T02:38:27;1.73;;;0.95;;
75050;SDS011;63628;47.656;11.310;2023-08-06T02:40:54;1.30;;;1.00;;
75050;SDS011;63628;47.656;11.310;2023-08-06T02:43:21;1.33;;;1.23;;
75050;SDS011;63628;47.656;11.310;2023-08-06T02:45:49;2.15;;;1.00;;
75050;SDS011;63628;47.656;11.310;2023-08-06T02:48:16;1.52;;;1.20;;
75050;SDS011;63628;47.656;11.310;2023-08-06T02:50:44;0.75;;;0.75;;
75050;SDS011;63628;47.656;11.310;2023-08-06T02:53:11;1.20;;;1.10;;
75050;SDS011;63628;47.656;11.310;2023-08-06T02:55:37;1.83;;;0.88;;
75050;SDS011;63628;47.656;11.310;2023-08-06T02:58:04;2.72;;;0.88;;
75050;SDS011;63628;47.656;11.310;2023-08-06T03:00:30;1.10;;;0.93;;
75050;SDS011;63628;47.656;11.310;2023-08-06T03:02:58;1.58;;;1.13;;
75050;SDS011;63628;47.656;11.310;2023-08-06T03:05:25;1.20;;;1.02;;
75050;SDS011;63628;47.656;11.310;2023-08-06T03:07:52;1.08;;;0.98;;
75050;SDS011;63628;47.656;11.310;2023-08-06T03:10:18;1.20;;;1.10;;
75050;SDS011;63628;47.656;11.310;2023-08-06T03:12:46;1.00;;;0.90;;
75050;SDS011;63628;47.656;11.310;2023-08-06T03:15:12;1.10;;;1.00;;
75050;SDS011;63628;47.656;11.310;2023-08-06T03:17:39;1.05;;;0.90;;
75050;SDS011;63628;47.656;11.310;2023-08-06T03:20:08;0.95;;;0.90;;
75050;SDS011;63628;47.656;11.310;2023-08-06T03:22:35;1.10;;;1.02;;
75050;SDS011;63628;47.656;11.310;2023-08-06T03:25:02;2.67;;;1.08;;
75050;SDS011;63628;47.656;11.310;2023-08-06T03:27:29;1.38;;;1.02;;
75050;SDS011;63628;47.656;11.310;2023-08-06T03:29:56;1.85;;;1.35;;
75050;SDS011;63628;47.656;11.310;2023-08-06T03:32:23;0.90;;;0.80;;
75050;SDS011;63628;47.656;11.310;2023-08-06T03:34:50;0.70;;;0.70;;
75050;SDS011;63628;47.656;11.310;2023-08-06T03:37:18;1.45;;;1.13;;
75050;SDS011;63628;47.656;11.310;2023-08-06T03:39:44;1.00;;;0.90;;
75050;SDS011;63628;47.656;11.310;2023-08-06T03:42:11;1.08;;;0.90;;
75050;SDS011;63628;47.656;11.310;2023-08-06T03:44:38;0.80;;;0.80;;
75050;SDS011;63628;47.656;11.310;2023-08-06T03:47:05;1.85;;;0.90;;
75050;SDS011;63628;47.656;11.310;2023-08-06T03:49:32;1.55;;;1.10;;
75050;SDS011;63628;47.656;11.310;2023-08-06T03:51:59;1.02;;;0.90;;
75050;SDS011;63628;47.656;11.310;2023-08-06T03:54:27;1.20;;;1.10;;
75050;SDS011;63628;47.656;11.310;2023-08-06T03:56:53;1.23;;;1.00;;
75050;SDS011;63628;47.656;11.310;2023-08-06T03:59:20;1.77;;;0.82;;
75050;SDS011;63628;47.656;11.310;2023-08-06T04:01:46;1.17;;;1.08;;
75050;SDS011;63628;47.656;11.310;2023-08-06T04:04:13;1.85;;;1.20;;
75050;SDS011;63628;47.656;11.310;2023-08-06T04:06:40;1.10;;;0.90;;
75050;SDS011;63628;47.656;11.310;2023-08-06T04:09:07;1.25;;;0.98;;
75050;SDS011;63628;47.656;11.310;2023-08-06T04:11:34;1.15;;;1.00;;
75050;SDS011;63628;47.656;11.310;2023-08-06T04:14:01;1.00;;;0.90;;
75050;SDS011;63628;47.656;11.310;2023-08-06T04:16:28;0.85;;;0.85;;
75050;SDS011;63628;47.656;11.310;2023-08-06T04:18:54;1.27;;;1.00;;
75050;SDS011;63628;47.656;11.310;2023-08-06T04:21:21;0.95;;;0.85;;
75050;SDS011;63628;47.656;11.310;2023-08-06T04:23:48;2.90;;;0.77;;
75050;SDS011;63628;47.656;11.310;2023-08-06T04:26:15;1.05;;;0.98;;
75050;SDS011;63628;47.656;11.310;2023-08-06T04:28:43;1.92;;;0.90;;
75050;SDS011;63628;47.656;11.310;2023-08-06T04:31:09;0.77;;;0.77;;
75050;SDS011;63628;47.656;11.310;2023-08-06T04:33:36;1.10;;;1.00;;
75050;SDS011;63628;47.656;11.310;2023-08-06T04:36:03;0.80;;;0.70;;
75050;SDS011;63628;47.656;11.310;2023-08-06T04:38:30;1.05;;;0.95;;
75050;SDS011;63628;47.656;11.310;2023-08-06T04:40:57;1.20;;;0.95;;
75050;SDS011;63628;47.656;11.310;2023-08-06T04:43:24;2.45;;;1.08;;
75050;SDS011;63628;47.656;11.310;2023-08-06T04:45:53;1.33;;;1.13;;
75050;SDS011;63628;47.656;11.310;2023-08-06T04:48:20;0.88;;;0.82;;
75050;SDS011;63628;47.656;11.310;2023-08-06T04:50:48;1.10;;;1.00;;
75050;SDS011;63628;47.656;11.310;2023-08-06T04:53:16;1.45;;;1.15;;
75050;SDS011;63628;47.656;11.310;2023-08-06T04:55:43;1.00;;;0.90;;
75050;SDS011;63628;47.656;11.310;2023-08-06T04:58:10;1.15;;;0.90;;
75050;SDS011;63628;47.656;11.310;2023-08-06T05:00:37;1.20;;;0.88;;
75050;SDS011;63628;47.656;11.310;2023-08-06T05:03:05;1.00;;;0.90;;
75050;SDS011;63628;47.656;11.310;2023-08-06T05:05:32;0.80;;;0.73;;
75050;SDS011;63628;47.656;11.310;2023-08-06T05:07:58;0.98;;;0.98;;
75050;SDS011;63628;47.656;11.310;2023-08-06T05:10:25;1.58;;;0.90;;
75050;SDS011;63628;47.656;11.310;2023-08-06T05:12:52;0.77;;;0.75;;
75050;SDS011;63628;47.656;11.310;2023-08-06T05:15:19;1.10;;;1.00;;
75050;SDS011;63628;47.656;11.310;2023-08-06T05:17:46;1.23;;;0.85;;
75050;SDS011;63628;47.656;11.310;2023-08-06T05:20:14;0.98;;;0.80;;
75050;SDS011;63628;47.656;11.310;2023-08-06T05:22:42;0.80;;;0.80;;
75050;SDS011;63628;47.656;11.310;2023-08-06T05:25:09;0.93;;;0.85;;
75050;SDS011;63628;47.656;11.310;2023-08-06T05:27:36;5.68;;;0.80;;
75050;SDS011;63628;47.656;11.310;2023-08-06T05:30:02;1.08;;;0.88;;
75050;SDS011;63628;47.656;11.310;2023-08-06T05:32:30;0.95;;;0.88;;
75050;SDS011;63628;47.656;11.310;2023-08-06T05:34:56;0.88;;;0.73;;
75050;SDS011;63628;47.656;11.310;2023-08-06T05:37:24;0.75;;;0.70;;
75050;SDS011;63628;47.656;11.310;2023-08-06T05:39:51;2.10;;;0.75;;
75050;SDS011;63628;47.656;11.310;2023-08-06T05:42:18;0.57;;;0.52;;
75050;SDS011;63628;47.656;11.310;2023-08-06T05:44:44;0.95;;;0.90;;
75050;SDS011;63628;47.656;11.310;2023-08-06T05:47:11;1.05;;;0.90;;
75050;SDS011;63628;47.656;11.310;2023-08-06T05:49:38;0.80;;;0.80;;
75050;SDS011;63628;47.656;11.310;2023-08-06T05:52:05;4.53;;;1.20;;
75050;SDS011;63628;47.656;11.310;2023-08-06T05:54:34;1.02;;;0.93;;
75050;SDS011;63628;47.656;11.310;2023-08-06T05:57:00;1.17;;;0.80;;
75050;SDS011;63628;47.656;11.310;2023-08-06T05:59:27;0.90;;;0.70;;
75050;SDS011;63628;47.656;11.310;2023-08-06T06:01:53;1.20;;;1.08;;
75050;SDS011;63628;47.656;11.310;2023-08-06T06:04:21;1.30;;;0.80;;
75050;SDS011;63628;47.656;11.310;2023-08-06T06:06:47;0.82;;;0.82;;
75050;SDS011;63628;47.656;11.310;2023-08-06T06:09:14;1.08;;;0.95;;
75050;SDS011;63628;47.656;11.310;2023-08-06T06:11:42;0.80;;;0.80;;
75050;SDS011;63628;47.656;11.310;2023-08-06T06:14:09;0.95;;;0.90;;
75050;SDS011;63628;47.656;11.310;2023-08-06T06:16:36;1.05;;;0.95;;
75050;SDS011;63628;47.656;11.310;2023-08-06T06:19:02;0.93;;;0.90;;
75050;SDS011;63628;47.656;11.310;2023-08-06T06:21:29;1.10;;;0.85;;
75050;SDS011;63628;47.656;11.310;2023-08-06T06:23:56;1.00;;;0.60;;
75050;SDS011;63628;47.656;11.310;2023-08-06T06:26:23;1.08;;;0.98;;
75050;SDS011;63628;47.656;11.310;2023-08-06T06:28:51;0.88;;;0.88;;
75050;SDS011;63628;47.656;11.310;2023-08-06T06:31:17;0.68;;;0.63;;
75050;SDS011;63628;47.656;11.310;2023-08-06T06:33:44;0.90;;;0.90;;
75050;SDS011;63628;47.656;11.310;2023-08-06T06:36:11;1.23;;;1.02;;
75050;SDS011;63628;47.656;11.310;2023-08-06T06:38:37;0.98;;;0.88;;
75050;SDS011;63628;47.656;11.310;2023-08-06T06:41:04;1.10;;;1.00;;
75050;SDS011;63628;47.656;11.310;2023-08-06T06:43:31;0.63;;;0.60;;
75050;SDS011;63628;47.656;11.310;2023-08-06T06:46:00;0.95;;;0.88;;
75050;SDS011;63628;47.656;11.310;2023-08-06T06:48:27;0.90;;;0.80;;
75050;SDS011;63628;47.656;11.310;2023-08-06T06:50:55;0.80;;;0.80;;
75050;SDS011;63628;47.656;11.310;2023-08-06T06:53:22;1.25;;;0.95;;
75050;SDS011;63628;47.656;11.310;2023-08-06T06:55:55;4.50;;;1.20;;
75050;SDS011;63628;47.656;11.310;2023-08-06T06:58:23;1.20;;;0.90;;
75050;SDS011;63628;47.656;11.310;2023-08-06T07:00:49;0.73;;;0.70;;
75050;SDS011;63628;47.656;11.310;2023-08-06T07:03:19;2.05;;;1.38;;
75050;SDS011;63628;47.656;11.310;2023-08-06T07:05:46;1.85;;;1.67;;
75050;SDS011;63628;47.656;11.310;2023-08-06T07:08:12;1.00;;;0.90;;
75050;SDS011;63628;47.656;11.310;2023-08-06T07:10:40;1.98;;;1.70;;
75050;SDS011;63628;47.656;11.310;2023-08-06T07:13:09;0.90;;;0.80;;
75050;SDS011;63628;47.656;11.310;2023-08-06T07:15:36;1.65;;;1.27;;
75050;SDS011;63628;47.656;11.310;2023-08-06T07:18:03;1.65;;;0.95;;
75050;SDS011;63628;47.656;11.310;2023-08-06T07:20:31;1.42;;;0.90;;
75050;SDS011;63628;47.656;11.310;2023-08-06T07:22:57;1.17;;;1.08;;
75050;SDS011;63628;47.656;11.310;2023-08-06T07:25:24;2.10;;;0.80;;
75050;SDS011;63628;47.656;11.310;2023-08-06T07:27:51;1.02;;;0.88;;
75050;SDS011;63628;47.656;11.310;2023-08-06T07:30:17;2.85;;;0.68;;
75050;SDS011;63628;47.656;11.310;2023-08-06T07:32:44;2.25;;;0.82;;
75050;SDS011;63628;47.656;11.310;2023-08-06T07:35:11;1.20;;;1.00;;
75050;SDS011;63628;47.656;11.310;2023-08-06T07:37:40;0.90;;;0.75;;
75050;SDS011;63628;47.656;11.310;2023-08-06T07:40:07;0.90;;;0.80;;
75050;SDS011;63628;47.656;11.310;2023-08-06T07:42:35;1.45;;;0.70;;
75050;SDS011;63628;47.656;11.310;2023-08-06T07:45:02;0.60;;;0.60;;
75050;SDS011;63628;47.656;11.310;2023-08-06T07:47:29;1.90;;;0.60;;
75050;SDS011;63628;47.656;11.310;2023-08-06T07:49:55;1.65;;;0.70;;
75050;SDS011;63628;47.656;11.310;2023-08-06T07:52:22;1.42;;;0.75;;
75050;SDS011;63628;47.656;11.310;2023-08-06T07:54:50;2.05;;;0.63;;
75050;SDS011;63628;47.656;11.310;2023-08-06T07:57:17;1.15;;;0.65;;
75050;SDS011;63628;47.656;11.310;2023-08-06T07:59:43;2.28;;;1.02;;
75050;SDS011;63628;47.656;11.310;2023-08-06T08:02:10;0.57;;;0.40;;
75050;SDS011;63628;47.656;11.310;2023-08-06T08:04:37;3.67;;;0.88;;
75050;SDS011;63628;47.656;11.310;2023-08-06T08:07:04;1.17;;;0.75;;
75050;SDS011;63628;47.656;11.310;2023-08-06T08:09:31;0.40;;;0.38;;
75050;SDS011;63628;47.656;11.310;2023-08-06T08:11:59;1.42;;;0.52;;
75050;SDS011;63628;47.656;11.310;2023-08-06T08:16:55;0.82;;;0.40;;
75050;SDS011;63628;47.656;11.310;2023-08-06T08:19:22;1.48;;;0.35;;
75050;SDS011;63628;47.656;11.310;2023-08-06T08:21:49;0.90;;;0.30;;
75050;SDS011;63628;47.656;11.310;2023-08-06T08:24:15;1.67;;;0.30;;
75050;SDS011;63628;47.656;11.310;2023-08-06T08:26:46;0.80;;;0.70;;
75050;SDS011;63628;47.656;11.310;2023-08-06T08:29:14;0.90;;;0.70;;
75050;SDS011;63628;47.656;11.310;2023-08-06T08:31:40;0.85;;;0.73;;
75050;SDS011;63628;47.656;11.310;2023-08-06T08:34:07;0.43;;;0.13;;
75050;SDS011;63628;47.656;11.310;2023-08-06T08:36:34;1.55;;;0.38;;
75050;SDS011;63628;47.656;11.310;2023-08-06T08:39:00;0.65;;;0.20;;
75050;SDS011;63628;47.656;11.310;2023-08-06T08:41:27;1.52;;;0.40;;
75050;SDS011;63628;47.656;11.310;2023-08-06T08:43:54;0.13;;;0.10;;
75050;SDS011;63628;47.656;11.310;2023-08-06T08:46:24;0.20;;;0.10;;
75050;SDS011;63628;47.656;11.310;2023-08-06T08:48:52;2.22;;;0.50;;
75050;SDS011;63628;47.656;11.310;2023-08-06T08:51:20;0.85;;;0.20;;
75050;SDS011;63628;47.656;11.310;2023-08-06T08:53:47;1.33;;;0.10;;
75050;SDS011;63628;47.656;11.310;2023-08-06T08:56:16;0.70;;;0.10;;
75050;SDS011;63628;47.656;11.310;2023-08-06T08:58:42;0.28;;;0.10;;
75050;SDS011;63628;47.656;11.310;2023-08-06T09:01:09;0.95;;;0.22;;
75050;SDS011;63628;47.656;11.310;2023-08-06T09:03:37;1.17;;;0.43;;
75050;SDS011;63628;47.656;11.310;2023-08-06T09:06:05;0.55;;;0.50;;
75050;SDS011;63628;47.656;11.310;2023-08-06T09:08:34;0.63;;;0.20;;
75050;SDS011;63628;47.656;11.310;2023-08-06T09:11:04;1.25;;;0.35;;
75050;SDS011;63628;47.656;11.310;2023-08-06T09:13:31;2.63;;;0.30;;
75050;SDS011;63628;47.656;11.310;2023-08-06T09:15:58;1.73;;;0.10;;
75050;SDS011;63628;47.656;11.310;2023-08-06T09:18:25;0.38;;;0.25;;
75050;SDS011;63628;47.656;11.310;2023-08-06T09:20:56;0.40;;;0.30;;
75050;SDS011;63628;47.656;11.310;2023-08-06T09:23:27;0.73;;;0.20;;
75050;SDS011;63628;47.656;11.310;2023-08-06T09:25:55;0.47;;;0.47;;
75050;SDS011;63628;47.656;11.310;2023-08-06T09:28:22;2.17;;;0.43;;
75050;SDS011;63628;47.656;11.310;2023-08-06T09:30:50;0.47;;;0.10;;
75050;SDS011;63628;47.656;11.310;2023-08-06T09:33:22;0.25;;;0.10;;
75050;SDS011;63628;47.656;11.310;2023-08-06T09:35:49;0.73;;;0.40;;
75050;SDS011;63628;47.656;11.310;2023-08-06T09:38:17;0.20;;;0.10;;
75050;SDS011;63628;47.656;11.310;2023-08-06T09:40:44;0.40;;;0.30;;
75050;SDS011;63628;47.656;11.310;2023-08-06T09:43:11;0.60;;;0.10;;
75050;SDS011;63628;47.656;11.310;2023-08-06T09:45:38;1.00;;;0.13;;
75050;SDS011;63628;47.656;11.310;2023-08-06T09:48:05;0.10;;;0.10;;
75050;SDS011;63628;47.656;11.310;2023-08-06T09:50:34;0.43;;;0.20;;
75050;SDS011;63628;47.656;11.310;2023-08-06T09:55:31;0.90;;;0.32;;
75050;SDS011;63628;47.656;11.310;2023-08-06T09:57:59;0.35;;;0.35;;
75050;SDS011;63628;47.656;11.310;2023-08-06T10:00:26;0.90;;;0.20;;
75050;SDS011;63628;47.656;11.310;2023-08-06T10:02:54;0.20;;;0.20;;
75050;SDS011;63628;47.656;11.310;2023-08-06T10:05:25;0.10;;;0.00;;
75050;SDS011;63628;47.656;11.310;2023-08-06T10:07:53;1.67;;;0.30;;
75050;SDS011;63628;47.656;11.310;2023-08-06T10:10:23;0.35;;;0.30;;
75050;SDS011;63628;47.656;11.310;2023-08-06T10:12:54;0.60;;;0.30;;
75050;SDS011;63628;47.656;11.310;2023-08-06T10:15:25;0.73;;;0.10;;
75050;SDS011;63628;47.656;11.310;2023-08-06T10:17:54;0.38;;;0.38;;
75050;SDS011;63628;47.656;11.310;2023-08-06T10:20:23;0.10;;;0.10;;
75050;SDS011;63628;47.656;11.310;2023-08-06T10:22:59;0.57;;;0.10;;
75050;SDS011;63628;47.656;11.310;2023-08-06T10:25:30;1.65;;;0.35;;
75050;SDS011;63628;47.656;11.310;2023-08-06T10:27:59;1.17;;;0.10;;
75050;SDS011;63628;47.656;11.310;2023-08-06T10:30:27;0.53;;;0.30;;
75050;SDS011;63628;47.656;11.310;2023-08-06T10:32:56;0.47;;;0.30;;
75050;SDS011;63628;47.656;11.310;2023-08-06T10:38:12;0.70;;;0.22;;
75050;SDS011;63628;47.656;11.310;2023-08-06T10:40:40;0.20;;;0.08;;
75050;SDS011;63628;47.656;11.310;2023-08-06T10:43:13;0.40;;;0.30;;
75050;SDS011;63628;47.656;11.310;2023-08-06T10:45:51;0.50;;;0.20;;
75050;SDS011;63628;47.656;11.310;2023-08-06T10:48:28;0.50;;;0.20;;
75050;SDS011;63628;47.656;11.310;2023-08-06T10:50:56;0.32;;;0.30;;
75050;SDS011;63628;47.656;11.310;2023-08-06T10:53:23;2.15;;;0.50;;
75050;SDS011;63628;47.656;11.310;2023-08-06T10:55:50;0.77;;;0.20;;
75050;SDS011;63628;47.656;11.310;2023-08-06T10:58:18;0.75;;;0.10;;
75050;SDS011;63628;47.656;11.310;2023-08-06T11:00:45;0.25;;;0.20;;
75050;SDS011;63628;47.656;11.310;2023-08-06T11:03:12;0.40;;;0.10;;
75050;SDS011;63628;47.656;11.310;2023-08-06T11:05:39;0.22;;;0.20;;
75050;SDS011;63628;47.656;11.310;2023-08-06T11:08:06;0.82;;;0.30;;
75050;SDS011;63628;47.656;11.310;2023-08-06T11:10:32;0.50;;;0.05;;
75050;SDS011;63628;47.656;11.310;2023-08-06T11:13:00;0.17;;;0.13;;
75050;SDS011;63628;47.656;11.310;2023-08-06T11:15:29;0.10;;;0.10;;
75050;SDS011;63628;47.656;11.310;2023-08-06T11:17:56;0.10;;;0.10;;
75050;SDS011;63628;47.656;11.310;2023-08-06T11:20:23;0.17;;;0.10;;
75050;SDS011;63628;47.656;11.310;2023-08-06T11:22:50;0.40;;;0.30;;
75050;SDS011;63628;47.656;11.310;2023-08-06T11:25:19;0.10;;;0.00;;
75050;SDS011;63628;47.656;11.310;2023-08-06T11:27:47;0.55;;;0.30;;
75050;SDS011;63628;47.656;11.310;2023-08-06T11:30:14;0.10;;;0.10;;
75050;SDS011;63628;47.656;11.310;2023-08-06T11:32:48;0.32;;;0.20;;
75050;SDS011;63628;47.656;11.310;2023-08-06T11:35:15;0.20;;;0.20;;
75050;SDS011;63628;47.656;11.310;2023-08-06T11:37:43;0.40;;;0.00;;
75050;SDS011;63628;47.656;11.310;2023-08-06T11:40:11;0.98;;;0.35;;
75050;SDS011;63628;47.656;11.310;2023-08-06T11:42:38;0.00;;;0.00;;
75050;SDS011;63628;47.656;11.310;2023-08-06T11:45:05;1.77;;;0.20;;
75050;SDS011;63628;47.656;11.310;2023-08-06T11:47:32;0.20;;;0.20;;
75050;SDS011;63628;47.656;11.310;2023-08-06T11:50:00;0.30;;;0.20;;
75050;SDS011;63628;47.656;11.310;2023-08-06T11:52:27;0.40;;;0.20;;
75050;SDS011;63628;47.656;11.310;2023-08-06T11:55:00;0.28;;;0.00;;
75050;SDS011;63628;47.656;11.310;2023-08-06T11:57:34;0.22;;;0.05;;
75050;SDS011;63628;47.656;11.310;2023-08-06T12:00:02;0.25;;;0.10;;
75050;SDS011;63628;47.656;11.310;2023-08-06T12:02:31;0.10;;;0.10;;
75050;SDS011;63628;47.656;11.310;2023-08-06T12:05:02;0.00;;;0.00;;
75050;SDS011;63628;47.656;11.310;2023-08-06T12:07:31;0.25;;;0.10;;
75050;SDS011;63628;47.656;11.310;2023-08-06T12:09:59;0.20;;;0.20;;
75050;SDS011;63628;47.656;11.310;2023-08-06T12:12:26;0.00;;;0.00;;
75050;SDS011;63628;47.656;11.310;2023-08-06T12:14:54;0.10;;;0.10;;
75050;SDS011;63628;47.656;11.310;2023-08-06T12:17:21;0.00;;;0.00;;
75050;SDS011;63628;47.656;11.310;2023-08-06T12:19:47;0.10;;;0.10;;
75050;SDS011;63628;47.656;11.310;2023-08-06T12:22:15;0.55;;;0.17;;
75050;SDS011;63628;47.656;11.310;2023-08-06T12:24:42;0.10;;;0.10;;
75050;SDS011;63628;47.656;11.310;2023-08-06T12:27:10;0.20;;;0.10;;
75050;SDS011;63628;47.656;11.310;2023-08-06T12:29:37;0.00;;;0.00;;
75050;SDS011;63628;47.656;11.310;2023-08-06T12:32:06;0.00;;;0.00;;
75050;SDS011;63628;47.656;11.310;2023-08-06T12:34:33;0.20;;;0.10;;
75050;SDS011;63628;47.656;11.310;2023-08-06T12:37:17;0.22;;;0.15;;
75050;SDS011;63628;47.656;11.310;2023-08-06T12:39:44;0.55;;;0.20;;
75050;SDS011;63628;47.656;11.310;2023-08-06T12:42:11;0.13;;;0.10;;
75050;SDS011;63628;47.656;11.310;2023-08-06T12:44:37;0.00;;;0.00;;
75050;SDS011;63628;47.656;11.310;2023-08-06T12:47:04;0.10;;;0.10;;
75050;SDS011;63628;47.656;11.310;2023-08-06T12:49:31;0.13;;;0.00;;
75050;SDS011;63628;47.656;11.310;2023-08-06T12:51:59;0.00;;;0.00;;
75050;SDS011;63628;47.656;11.310;2023-08-06T12:54:27;0.10;;;0.10;;
75050;SDS011;63628;47.656;11.310;2023-08-06T12:56:54;0.10;;;0.00;;
75050;SDS011;63628;47.656;11.310;2023-08-06T12:59:21;0.00;;;0.00;;
75050;SDS011;63628;47.656;11.310;2023-08-06T13:01:48;0.00;;;0.00;;
75050;SDS011;63628;47.656;11.310;2023-08-06T13:04:15;0.00;;;0.00;;
75050;SDS011;63628;47.656;11.310;2023-08-06T13:06:48;0.00;;;0.00;;
75050;SDS011;63628;47.656;11.310;2023-08-06T13:09:15;0.10;;;0.10;;
75050;SDS011;63628;47.656;11.310;2023-08-06T13:11:43;0.00;;;0.00;;
75050;SDS011;63628;47.656;11.310;2023-08-06T13:14:13;0.00;;;0.00;;
75050;SDS011;63628;47.656;11.310;2023-08-06T13:16:40;0.10;;;0.10;;
75050;SDS011;63628;47.656;11.310;2023-08-06T13:19:09;0.00;;;0.00;;
75050;SDS011;63628;47.656;11.310;2023-08-06T13:24:28;0.00;;;0.00;;
75050;SDS011;63628;47.656;11.310;2023-08-06T13:26:56;0.10;;;0.08;;
75050;SDS011;63628;47.656;11.310;2023-08-06T13:29:24;0.63;;;0.00;;
75050;SDS011;63628;47.656;11.310;2023-08-06T13:31:51;0.03;;;0.00;;
75050;SDS011;63628;47.656;11.310;2023-08-06T13:34:18;0.00;;;0.00;;
75050;SDS011;63628;47.656;11.310;2023-08-06T13:36:45;0.00;;;0.00;;
75050;SDS011;63628;47.656;11.310;2023-08-06T13:39:11;0.05;;;0.05;;
75050;SDS011;63628;47.656;11.310;2023-08-06T13:41:38;0.00;;;0.00;;
75050;SDS011;63628;47.656;11.310;2023-08-06T13:44:07;0.10;;;0.00;;
75050;SDS011;63628;47.656;11.310;2023-08-06T13:46:33;0.10;;;0.03;;
75050;SDS011;63628;47.656;11.310;2023-08-06T13:49:00;0.10;;;0.00;;
75050;SDS011;63628;47.656;11.310;2023-08-06T13:51:27;0.00;;;0.00;;
75050;SDS011;63628;47.656;11.310;2023-08-06T13:53:53;0.30;;;0.03;;
75050;SDS011;63628;47.656;11.310;2023-08-06T13:56:20;0.10;;;0.00;;
75050;SDS011;63628;47.656;11.310;2023-08-06T13:58:47;0.00;;;0.00;;
75050;SDS011;63628;47.656;11.310;2023-08-06T14:01:16;0.30;;;0.00;;
75050;SDS011;63628;47.656;11.310;2023-08-06T14:03:43;0.10;;;0.10;;
75050;SDS011;63628;47.656;11.310;2023-08-06T14:06:10;0.00;;;0.00;;
75050;SDS011;63628;47.656;11.310;2023-08-06T14:08:36;3.30;;;0.25;;
75050;SDS011;63628;47.656;11.310;2023-08-06T14:11:03;0.00;;;0.00;;
75050;SDS011;63628;47.656;11.310;2023-08-06T14:13:31;0.00;;;0.00;;
75050;SDS011;63628;47.656;11.310;2023-08-06T14:15:58;0.00;;;0.00;;
75050;SDS011;63628;47.656;11.310;2023-08-06T14:18:26;0.00;;;0.00;;
75050;SDS011;63628;47.656;11.310;2023-08-06T14:20:53;0.30;;;0.00;;
75050;SDS011;63628;47.656;11.310;2023-08-06T14:23:20;0.00;;;0.00;;
75050;SDS011;63628;47.656;11.310;2023-08-06T14:25:47;0.00;;;0.00;;
75050;SDS011;63628;47.656;11.310;2023-08-06T14:28:13;0.00;;;0.00;;
75050;SDS011;63628;47.656;11.310;2023-08-06T14:30:40;0.45;;;0.00;;
75050;SDS011;63628;47.656;11.310;2023-08-06T14:33:07;0.82;;;0.00;;
75050;SDS011;63628;47.656;11.310;2023-08-06T14:35:53;0.00;;;0.00;;
75050;SDS011;63628;47.656;11.310;2023-08-06T14:38:20;0.00;;;0.00;;
75050;SDS011;63628;47.656;11.310;2023-08-06T14:40:47;0.00;;;0.00;;
75050;SDS011;63628;47.656;11.310;2023-08-06T14:43:13;0.00;;;0.00;;
75050;SDS011;63628;47.656;11.310;2023-08-06T14:45:41;0.00;;;0.00;;
75050;SDS011;63628;47.656;11.310;2023-08-06T14:48:08;0.00;;;0.00;;
75050;SDS011;63628;47.656;11.310;2023-08-06T14:50:34;0.00;;;0.00;;